Time;durP1;ratioP1;P1;durP2;ratioP2;P2;SDS_P1;SDS_P2;PMS_P1;PMS_P2;Temp;Humidity;BMP_temperature;BMP_pressure;BME280_temperature;BME280_humidity;BME280_pressure;Samples;Min_cycle;Max_cycle;Signal;HPM_P1;HPM_P2
2022/08/18 00:01:14;;;;;;;7.63;4.13;;;27.30;74.10;;;;;;4974298;28;20217;-76
2022/08/18 00:03:45;;;;;;;9.65;3.88;;;27.30;73.20;;;;;;4972089;28;20380;-75
2022/08/18 00:06:27;;;;;;;6.20;3.95;;;27.30;73.20;;;;;;4974910;28;20185;-75
2022/08/18 00:09:00;;;;;;;7.47;3.75;;;27.30;73.20;;;;;;4972628;28;20276;-75
2022/08/18 00:11:31;;;;;;;7.10;3.90;;;27.30;73.30;;;;;;4979990;28;20288;-75
2022/08/18 00:14:12;;;;;;;9.65;4.00;;;27.20;73.50;;;;;;4974660;28;20200;-75
2022/08/18 00:16:51;;;;;;;7.20;3.78;;;27.20;73.80;;;;;;4970613;28;20217;-75
2022/08/18 00:19:20;;;;;;;6.97;3.90;;;27.20;73.90;;;;;;4975212;28;20197;-76
2022/08/18 00:22:08;;;;;;;6.38;3.85;;;27.20;73.90;;;;;;4980910;28;20197;-75
2022/08/18 00:24:45;;;;;;;6.25;3.85;;;27.20;73.90;;;;;;4976370;28;20713;-76
2022/08/18 00:27:20;;;;;;;7.25;3.85;;;27.10;74.00;;;;;;4977867;28;20761;-75
2022/08/18 00:29:51;;;;;;;6.90;4.30;;;27.10;74.00;;;;;;4971787;28;20194;-75
2022/08/18 00:32:22;;;;;;;6.40;4.32;;;27.10;74.10;;;;;;4970264;28;20225;-75
2022/08/18 00:34:51;;;;;;;5.97;3.65;;;27.10;74.00;;;;;;4975446;28;20193;-75
2022/08/18 00:37:21;;;;;;;5.95;4.20;;;27.10;74.10;;;;;;4971530;28;20228;-75
2022/08/18 00:39:52;;;;;;;6.13;4.15;;;27.10;74.00;;;;;;4973951;28;20688;-74
2022/08/18 00:42:24;;;;;;;6.05;3.65;;;27.10;74.00;;;;;;4979738;28;20556;-75
2022/08/18 00:45:01;;;;;;;6.18;3.92;;;27.10;74.00;;;;;;4978569;28;20197;-75
2022/08/18 00:47:29;;;;;;;5.78;3.70;;;27.10;74.00;;;;;;4979298;28;20201;-75
2022/08/18 00:50:12;;;;;;;9.13;4.70;;;27.10;74.10;;;;;;4974113;28;20217;-77
2022/08/18 00:52:46;;;;;;;7.30;3.80;;;27.00;74.00;;;;;;4980789;28;20221;-75
2022/08/18 00:55:18;;;;;;;6.32;3.78;;;27.00;73.90;;;;;;4976125;28;20216;-75
2022/08/18 00:57:48;;;;;;;6.03;4.07;;;27.00;73.90;;;;;;4975357;28;20605;-75
2022/08/18 01:00:18;;;;;;;7.40;3.45;;;27.00;73.90;;;;;;4976324;28;20190;-76
2022/08/18 01:02:50;;;;;;;8.85;4.18;;;27.00;74.00;;;;;;4976565;28;20651;-75
2022/08/18 01:05:24;;;;;;;5.18;3.83;;;27.00;74.10;;;;;;4966802;28;20650;-75
2022/08/18 01:07:52;;;;;;;6.13;3.92;;;27.00;74.10;;;;;;4973298;28;20205;-75
2022/08/18 01:10:24;;;;;;;6.15;3.97;;;27.00;74.10;;;;;;4979812;28;20260;-77
2022/08/18 01:12:54;;;;;;;6.72;4.82;;;26.90;74.10;;;;;;4974027;28;20194;-75
2022/08/18 01:15:24;;;;;;;11.52;4.13;;;26.90;74.30;;;;;;4972275;28;20201;-76
2022/08/18 01:23:38;;;;;;;6.50;3.92;;;26.80;74.60;;;;;;4974678;28;20190;-75
2022/08/18 01:26:08;;;;;;;9.45;4.60;;;26.80;74.90;;;;;;4973878;28;20198;-75
2022/08/18 01:28:38;;;;;;;6.97;4.82;;;26.80;75.00;;;;;;4969310;28;20635;-74
2022/08/18 01:31:09;;;;;;;10.57;4.55;;;26.80;75.20;;;;;;4966541;28;20233;-76
2022/08/18 01:33:40;;;;;;;6.63;3.92;;;26.70;75.00;;;;;;4971792;28;20714;-75
2022/08/18 01:36:15;;;;;;;8.80;3.90;;;26.70;75.30;;;;;;4977698;28;20602;-75
2022/08/18 01:38:49;;;;;;;11.27;4.20;;;26.70;75.40;;;;;;4975767;28;20213;-74
2022/08/18 01:41:17;;;;;;;7.65;4.50;;;26.70;75.50;;;;;;4982560;28;21374;-75
2022/08/18 01:43:57;;;;;;;8.30;4.25;;;26.70;75.50;;;;;;4974259;28;20193;-75
2022/08/18 01:46:27;;;;;;;7.43;4.47;;;26.60;75.50;;;;;;4973947;28;20206;-76
2022/08/18 01:48:58;;;;;;;7.03;3.90;;;26.60;75.60;;;;;;4978532;28;20200;-75
2022/08/18 01:51:28;;;;;;;6.82;4.00;;;26.60;75.80;;;;;;4974874;28;20193;-75
2022/08/18 01:54:12;;;;;;;8.63;4.47;;;26.50;75.70;;;;;;4978968;28;20189;-75
2022/08/18 01:56:42;;;;;;;5.43;3.65;;;26.50;75.90;;;;;;4982262;28;20189;-75
2022/08/18 01:59:13;;;;;;;6.22;4.07;;;26.50;76.00;;;;;;4970033;28;20263;-75
2022/08/18 02:01:44;;;;;;;6.28;4.05;;;26.40;76.00;;;;;;4977574;28;20221;-74
2022/08/18 02:04:26;;;;;;;7.65;4.53;;;26.40;76.10;;;;;;4974512;28;20268;-78
2022/08/18 02:07:09;;;;;;;7.63;4.28;;;26.40;76.30;;;;;;4970365;28;20193;-77
2022/08/18 02:09:41;;;;;;;9.75;3.67;;;26.40;76.50;;;;;;4975399;28;20193;-76
2022/08/18 02:12:10;;;;;;;6.78;4.28;;;26.40;76.70;;;;;;4975183;28;20198;-76
2022/08/18 02:14:39;;;;;;;10.10;4.32;;;26.40;76.80;;;;;;4979878;28;20292;-76
2022/08/18 02:17:09;;;;;;;9.05;4.05;;;26.30;76.90;;;;;;4977669;28;20216;-76
2022/08/18 02:19:41;;;;;;;8.80;4.35;;;26.30;77.10;;;;;;4977031;28;20707;-76
2022/08/18 02:22:12;;;;;;;8.10;4.38;;;26.30;77.10;;;;;;4976403;28;20189;-77
2022/08/18 02:24:42;;;;;;;5.65;3.95;;;26.20;77.20;;;;;;4972601;28;20192;-76
2022/08/18 02:27:12;;;;;;;7.38;4.28;;;26.20;77.50;;;;;;4975092;28;20708;-76
2022/08/18 02:29:40;;;;;;;8.15;4.28;;;26.20;77.60;;;;;;4970947;28;21802;-77
2022/08/18 02:32:09;;;;;;;6.53;4.32;;;26.10;77.60;;;;;;4975869;28;20963;-77
2022/08/18 02:34:37;;;;;;;9.48;4.53;;;26.10;77.70;;;;;;4976301;28;20193;-78
2022/08/18 02:37:06;;;;;;;7.20;4.22;;;26.10;77.70;;;;;;4974867;28;20193;-76
2022/08/18 02:39:40;;;;;;;7.07;4.68;;;26.10;77.90;;;;;;4970970;28;20228;-76
2022/08/18 02:42:12;;;;;;;7.22;4.68;;;26.00;77.90;;;;;;4974119;28;20219;-77
2022/08/18 02:44:43;;;;;;;8.45;5.10;;;26.00;78.10;;;;;;4980639;28;20196;-77
2022/08/18 02:47:12;;;;;;;9.98;4.57;;;26.00;78.30;;;;;;4969381;28;20213;-76
2022/08/18 02:49:40;;;;;;;10.70;5.10;;;26.00;78.40;;;;;;4974491;28;20195;-77
2022/08/18 02:52:10;;;;;;;9.50;4.78;;;26.00;78.40;;;;;;4977099;28;20189;-75
2022/08/18 02:54:38;;;;;;;8.55;4.70;;;25.90;78.50;;;;;;4974047;28;20615;-76
2022/08/18 02:57:10;;;;;;;7.95;5.10;;;25.90;78.50;;;;;;4975837;28;20197;-77
2022/08/18 02:59:39;;;;;;;7.15;4.70;;;25.90;78.70;;;;;;4975665;28;20200;-76
2022/08/18 03:02:09;;;;;;;8.40;4.70;;;25.90;78.80;;;;;;4971120;28;20228;-76
2022/08/18 03:04:38;;;;;;;9.77;5.10;;;25.80;78.80;;;;;;4970980;28;20204;-76
2022/08/18 03:07:08;;;;;;;8.68;4.90;;;25.80;79.00;;;;;;4971858;28;20193;-77
2022/08/18 03:09:36;;;;;;;10.50;5.25;;;25.80;79.10;;;;;;4970195;28;20197;-76
2022/08/18 03:12:07;;;;;;;10.70;5.18;;;25.80;79.20;;;;;;4971700;28;20212;-76
2022/08/18 03:14:39;;;;;;;9.90;4.50;;;25.80;79.40;;;;;;4969334;28;20689;-76
2022/08/18 03:17:09;;;;;;;9.80;5.10;;;25.70;79.40;;;;;;4973830;28;20196;-76
2022/08/18 03:19:38;;;;;;;9.70;5.43;;;25.70;79.60;;;;;;4974380;28;20213;-76
2022/08/18 03:22:08;;;;;;;9.52;5.20;;;25.70;79.70;;;;;;4971659;28;20209;-78
2022/08/18 03:24:56;;;;;;;9.07;5.25;;;25.60;79.80;;;;;;4969342;28;20198;-76
2022/08/18 03:27:25;;;;;;;15.35;5.68;;;25.60;79.80;;;;;;4974184;28;20193;-76
2022/08/18 03:29:56;;;;;;;10.88;5.78;;;25.60;80.00;;;;;;4971221;28;20205;-77
2022/08/18 03:32:26;;;;;;;8.93;4.97;;;25.60;80.10;;;;;;4975255;28;20271;-76
2022/08/18 03:34:54;;;;;;;8.68;5.50;;;25.60;80.30;;;;;;4976816;28;20731;-76
2022/08/18 03:37:23;;;;;;;11.32;5.70;;;25.50;80.20;;;;;;4975097;28;20200;-76
2022/08/18 03:39:51;;;;;;;7.88;4.90;;;25.50;80.30;;;;;;4965162;28;20814;-77
2022/08/18 03:42:20;;;;;;;8.77;4.90;;;25.50;80.50;;;;;;4971313;28;20194;-76
2022/08/18 03:44:48;;;;;;;9.90;4.88;;;25.50;80.70;;;;;;4968701;28;20196;-76
2022/08/18 03:47:19;;;;;;;12.75;5.45;;;25.50;80.80;;;;;;4966818;28;20208;-77
2022/08/18 03:49:47;;;;;;;10.80;5.15;;;25.50;81.00;;;;;;4974631;28;20189;-76
2022/08/18 03:52:16;;;;;;;9.25;5.90;;;25.50;81.10;;;;;;4976759;28;20209;-76
2022/08/18 03:54:45;;;;;;;10.70;5.65;;;25.40;81.10;;;;;;4980283;28;20208;-76
2022/08/18 03:57:14;;;;;;;11.73;5.68;;;25.40;81.20;;;;;;4973237;28;20197;-75
2022/08/18 03:59:42;;;;;;;11.30;5.85;;;25.40;81.30;;;;;;4977988;28;20223;-76
2022/08/18 04:02:12;;;;;;;11.77;6.22;;;25.40;81.40;;;;;;4973638;28;20589;-75
2022/08/18 04:04:42;;;;;;;11.00;5.65;;;25.40;81.50;;;;;;4974371;28;20827;-76
2022/08/18 04:07:13;;;;;;;11.05;5.70;;;25.40;81.60;;;;;;4977271;28;20284;-75
2022/08/18 04:09:41;;;;;;;11.15;5.47;;;25.40;81.60;;;;;;4977185;28;20189;-76
2022/08/18 04:12:13;;;;;;;15.68;6.10;;;25.40;81.70;;;;;;4976998;28;20320;-75
2022/08/18 04:14:46;;;;;;;12.00;5.75;;;25.40;81.90;;;;;;4973730;28;20197;-75
2022/08/18 04:17:16;;;;;;;11.70;6.18;;;25.40;81.90;;;;;;4976162;28;20297;-75
2022/08/18 04:19:45;;;;;;;13.32;6.38;;;25.50;82.00;;;;;;4980186;28;20329;-79
2022/08/18 04:22:15;;;;;;;12.13;6.43;;;25.50;82.20;;;;;;4978228;28;20197;-76
2022/08/18 04:24:46;;;;;;;12.13;7.05;;;25.50;82.20;;;;;;4974356;28;20197;-75
2022/08/18 04:27:18;;;;;;;10.38;6.82;;;25.50;82.50;;;;;;4980295;28;20189;-75
2022/08/18 04:29:46;;;;;;;9.82;6.53;;;25.50;82.50;;;;;;4971456;28;20193;-76
2022/08/18 04:32:15;;;;;;;10.43;6.22;;;25.50;82.60;;;;;;4973474;28;20229;-77
2022/08/18 04:34:45;;;;;;;13.30;7.10;;;25.50;82.80;;;;;;4978952;28;20197;-74
2022/08/18 04:37:15;;;;;;;14.23;6.53;;;25.60;82.90;;;;;;4975112;28;20669;-76
2022/08/18 04:39:44;;;;;;;11.55;6.75;;;25.50;82.80;;;;;;4976055;28;20742;-76
2022/08/18 04:42:13;;;;;;;11.88;6.65;;;25.60;83.00;;;;;;4980144;28;20256;-75
2022/08/18 04:44:41;;;;;;;17.17;6.70;;;25.60;83.20;;;;;;4972015;28;20194;-76
2022/08/18 04:47:11;;;;;;;9.90;6.00;;;25.60;83.30;;;;;;4969127;28;20213;-77
2022/08/18 04:49:42;;;;;;;12.02;6.40;;;25.60;83.30;;;;;;4976690;28;20190;-76
2022/08/18 04:55:09;;;;;;;11.38;6.22;;;25.70;83.30;;;;;;4950598;28;20851;-76
2022/08/18 04:57:38;;;;;;;16.27;7.20;;;25.70;83.30;;;;;;4981993;28;20285;-76
2022/08/18 05:00:12;;;;;;;10.68;5.93;;;25.80;83.30;;;;;;4978324;28;20233;-76
2022/08/18 05:02:41;;;;;;;12.90;6.15;;;25.80;83.30;;;;;;4980183;28;20300;-76
2022/08/18 05:05:09;;;;;;;10.05;5.47;;;25.80;83.30;;;;;;4977861;28;20907;-76
2022/08/18 05:07:44;;;;;;;14.50;6.32;;;25.90;83.30;;;;;;4966913;28;20672;-76
2022/08/18 05:10:16;;;;;;;12.75;5.82;;;25.90;83.20;;;;;;4969027;28;20229;-76
2022/08/18 05:12:47;;;;;;;10.75;5.75;;;26.00;83.30;;;;;;4984261;28;20216;-76
2022/08/18 05:15:17;;;;;;;12.75;5.45;;;26.10;83.30;;;;;;4983041;28;20201;-76
2022/08/18 05:17:46;;;;;;;13.17;5.83;;;26.10;83.10;;;;;;4983955;28;20881;-76
2022/08/18 05:20:18;;;;;;;14.07;5.43;;;26.20;83.30;;;;;;4982178;28;20474;-76
2022/08/18 05:22:48;;;;;;;8.98;4.80;;;26.20;83.20;;;;;;4981777;28;20205;-76
2022/08/18 05:25:17;;;;;;;8.88;5.55;;;26.30;83.30;;;;;;4974222;28;20660;-76
2022/08/18 05:27:45;;;;;;;9.45;5.07;;;26.30;83.20;;;;;;4979189;28;20201;-76
2022/08/18 05:30:14;;;;;;;8.93;5.55;;;26.30;83.10;;;;;;4979296;28;20201;-76
2022/08/18 05:32:45;;;;;;;9.32;5.07;;;26.40;83.20;;;;;;4972677;28;20913;-75
2022/08/18 05:35:22;;;;;;;8.77;5.35;;;26.40;83.90;;;;;;4976220;28;20694;-75
2022/08/18 05:38:06;;;;;;;8.45;5.32;;;26.40;82.90;;;;;;4972407;28;20196;-76
2022/08/18 05:40:35;;;;;;;7.95;5.03;;;26.50;82.70;;;;;;4973615;28;20228;-76
2022/08/18 05:43:05;;;;;;;8.88;4.75;;;26.60;82.10;;;;;;4981391;28;20365;-75
2022/08/18 05:45:34;;;;;;;13.05;4.93;;;26.60;81.70;;;;;;4984527;28;20209;-75
2022/08/18 05:48:03;;;;;;;7.55;4.68;;;26.70;81.40;;;;;;4981360;28;20197;-76
2022/08/18 05:50:35;;;;;;;10.15;5.22;;;26.70;81.20;;;;;;4979651;28;20216;-75
2022/08/18 05:53:09;;;;;;;8.65;4.65;;;26.80;80.80;;;;;;4981432;28;20196;-76
2022/08/18 05:58:38;;;;;;;7.88;4.72;;;26.90;80.30;;;;;;4978238;28;20818;-75
2022/08/18 06:01:13;;;;;;;9.40;5.35;;;27.00;79.90;;;;;;4983677;28;20185;-74
2022/08/18 06:03:46;;;;;;;10.88;4.57;;;27.00;79.40;;;;;;4979430;28;20220;-75
2022/08/18 06:06:18;;;;;;;10.82;4.85;;;27.00;79.20;;;;;;4978868;28;20201;-76
2022/08/18 06:08:53;;;;;;;15.35;5.07;;;27.10;79.10;;;;;;4968313;28;20277;-75
2022/08/18 06:11:22;;;;;;;10.70;5.53;;;27.20;79.10;;;;;;4976305;28;20185;-78
2022/08/18 06:13:51;;;;;;;9.73;5.45;;;27.20;78.80;;;;;;4975172;28;20286;-75
2022/08/18 06:16:38;;;;;;;12.30;5.15;;;27.20;78.50;;;;;;4980196;28;20237;-78
2022/08/18 06:19:22;;;;;;;16.45;5.40;;;27.20;77.70;;;;;;4971579;28;20197;-78
2022/08/18 06:21:58;;;;;;;11.70;5.18;;;27.30;77.90;;;;;;4977179;28;20232;-78
2022/08/18 06:24:35;;;;;;;9.05;5.20;;;27.30;77.60;;;;;;4979635;28;20185;-79
2022/08/18 06:27:11;;;;;;;19.13;6.22;;;27.40;77.80;;;;;;4979112;28;20579;-75
2022/08/18 06:29:53;;;;;;;11.95;5.80;;;27.40;77.50;;;;;;4974053;28;20204;-75
2022/08/18 06:32:35;;;;;;;11.23;5.45;;;27.50;77.50;;;;;;4978807;28;20639;-79
2022/08/18 06:35:18;;;;;;;12.02;5.28;;;27.50;77.50;;;;;;4967996;28;20204;-79
2022/08/18 06:40:41;;;;;;;15.05;5.97;;;27.50;76.50;;;;;;4984606;28;20262;-78
2022/08/18 06:43:14;;;;;;;11.43;6.30;;;27.60;76.70;;;;;;4977615;28;20876;-77
2022/08/18 06:45:47;;;;;;;10.80;6.00;;;27.70;76.70;;;;;;4983310;28;20205;-78
2022/08/18 06:48:25;;;;;;;12.55;5.65;;;27.70;76.30;;;;;;4978200;28;20190;-78
2022/08/18 06:50:59;;;;;;;13.32;6.03;;;27.70;76.10;;;;;;4973876;28;20196;-79
2022/08/18 06:53:56;;;;;;;11.93;6.22;;;27.70;75.90;;;;;;4971905;28;20203;-78
2022/08/18 06:56:33;;;;;;;15.07;5.07;;;27.80;75.80;;;;;;4981090;28;20224;-78
2022/08/18 06:59:17;;;;;;;13.75;5.95;;;27.80;75.80;;;;;;4978606;28;20871;-78
2022/08/18 07:01:48;;;;;;;8.13;4.95;;;27.80;75.70;;;;;;4970944;28;20268;-78
2022/08/18 07:05:00;;;;;;;10.38;5.50;;;27.80;75.60;;;;;;4980208;28;20714;-79
2022/08/18 07:07:34;;;;;;;12.63;5.43;;;28.00;75.60;;;;;;4910896;29;20196;-76
2022/08/18 07:10:31;;;;;;;10.75;5.05;;;28.00;75.80;;;;;;4976033;28;20192;-80
2022/08/18 07:13:24;;;;;;;7.68;5.88;;;28.10;75.80;;;;;;4974101;28;20205;-81
2022/08/18 07:15:53;;;;;;;7.45;5.43;;;28.10;75.50;;;;;;4979759;28;20193;-80
2022/08/18 07:18:26;;;;;;;7.35;5.40;;;28.10;75.60;;;;;;4977611;28;20209;-79
2022/08/18 07:20:57;;;;;;;10.25;6.00;;;28.10;75.20;;;;;;4977841;28;20218;-78
2022/08/18 07:23:32;;;;;;;9.80;5.40;;;28.20;74.90;;;;;;4977245;28;20200;-80
2022/08/18 07:26:12;;;;;;;7.43;5.15;;;28.20;74.80;;;;;;4975359;28;20247;-80
2022/08/18 07:28:49;;;;;;;8.13;5.25;;;28.20;74.60;;;;;;4976971;28;20284;-80
2022/08/18 07:31:41;;;;;;;8.43;4.80;;;28.30;74.70;;;;;;4982047;28;20287;-77
2022/08/18 07:34:15;;;;;;;12.73;5.95;;;28.40;74.80;;;;;;4981436;28;20203;-80
2022/08/18 07:36:49;;;;;;;10.20;5.57;;;28.50;74.80;;;;;;4969902;28;20335;-78
2022/08/18 07:39:27;;;;;;;12.93;5.47;;;28.50;74.70;;;;;;4975569;28;20205;-78
2022/08/18 07:42:10;;;;;;;10.65;5.88;;;28.50;74.20;;;;;;4983713;28;20286;-80
2022/08/18 07:44:47;;;;;;;9.30;5.97;;;28.50;74.00;;;;;;4982174;28;20193;-77
2022/08/18 07:47:22;;;;;;;11.68;5.88;;;28.50;73.70;;;;;;4973291;28;20197;-78
2022/08/18 07:49:57;;;;;;;10.85;6.35;;;28.50;73.60;;;;;;4981949;28;20195;-78
2022/08/18 07:52:50;;;;;;;9.82;7.07;;;28.50;73.70;;;;;;4983575;28;20201;-79
2022/08/18 07:55:27;;;;;;;8.73;5.43;;;28.50;73.00;;;;;;4981972;28;20512;-77
2022/08/18 07:58:14;;;;;;;9.68;5.32;;;28.60;72.90;;;;;;4981808;28;20193;-77
2022/08/18 08:00:53;;;;;;;8.00;4.88;;;28.70;73.20;;;;;;4983186;28;20216;-77
2022/08/18 08:03:37;;;;;;;9.82;5.40;;;28.80;73.50;;;;;;4984018;28;20198;-77
2022/08/18 08:06:14;;;;;;;13.20;5.80;;;28.80;73.40;;;;;;4976691;28;20746;-77
2022/08/18 08:08:46;;;;;;;7.88;5.28;;;28.90;73.60;;;;;;4973275;28;20197;-77
2022/08/18 08:11:27;;;;;;;10.07;5.38;;;29.00;73.30;;;;;;4981665;28;20197;-77
2022/08/18 08:14:07;;;;;;;10.18;5.95;;;28.90;72.70;;;;;;4977855;28;20197;-76
2022/08/18 08:16:48;;;;;;;11.02;5.32;;;29.00;72.70;;;;;;4976704;28;20203;-76
2022/08/18 08:19:45;;;;;;;12.80;5.68;;;29.10;72.80;;;;;;4978677;28;20206;-78
2022/08/18 08:22:36;;;;;;;16.40;6.75;;;29.10;72.50;;;;;;4975965;28;20435;-81
2022/08/18 08:25:13;;;;;;;12.10;5.63;;;29.10;72.10;;;;;;4981985;28;20193;-77
2022/08/18 08:28:12;;;;;;;10.02;5.25;;;29.10;72.00;;;;;;4978646;28;20205;-77
2022/08/18 08:30:56;;;;;;;7.78;5.60;;;29.10;71.60;;;;;;4980126;28;20206;-78
2022/08/18 08:33:52;;;;;;;7.38;4.95;;;29.20;71.70;;;;;;4980015;28;20197;-76
2022/08/18 08:36:25;;;;;;;9.80;6.13;;;29.20;72.00;;;;;;4978447;28;20203;-77
2022/08/18 08:38:57;;;;;;;10.73;5.57;;;29.20;72.00;;;;;;4972582;28;20190;-76
2022/08/18 08:41:32;;;;;;;7.72;5.18;;;29.30;72.00;;;;;;4979077;28;20225;-76
2022/08/18 08:44:08;;;;;;;12.23;5.90;;;29.40;72.00;;;;;;4980304;28;20709;-76
2022/08/18 08:46:45;;;;;;;9.18;5.00;;;29.50;72.20;;;;;;4980337;28;20200;-77
2022/08/18 08:49:27;;;;;;;9.10;5.68;;;29.50;71.50;;;;;;4972326;28;20193;-78
2022/08/18 08:52:03;;;;;;;12.18;5.22;;;29.60;70.70;;;;;;4973740;28;20190;-78
2022/08/18 08:54:41;;;;;;;12.25;5.50;;;29.60;70.60;;;;;;4974252;28;20193;-78
2022/08/18 08:57:13;;;;;;;10.80;5.28;;;29.70;70.50;;;;;;4977549;28;20300;-78
2022/08/18 08:59:46;;;;;;;12.55;5.57;;;29.70;70.60;;;;;;4974849;28;20602;-78
2022/08/18 09:02:40;;;;;;;12.85;6.03;;;29.70;70.80;;;;;;4973854;28;20228;-77
2022/08/18 09:05:22;;;;;;;11.20;5.78;;;29.70;70.70;;;;;;4976636;28;20201;-79
2022/08/18 09:08:17;;;;;;;12.32;6.32;;;29.70;70.40;;;;;;4977094;28;20197;-78
2022/08/18 09:11:22;;;;;;;9.30;5.53;;;29.70;70.00;;;;;;4974847;28;20205;-78
2022/08/18 09:14:26;;;;;;;9.70;6.03;;;29.70;69.80;;;;;;4973504;28;20634;-80
2022/08/18 09:17:13;;;;;;;8.57;5.15;;;29.70;69.80;;;;;;4972711;28;20193;-79
2022/08/18 09:20:04;;;;;;;11.65;5.03;;;29.70;69.80;;;;;;4979932;28;20197;-78
2022/08/18 09:22:41;;;;;;;11.27;5.25;;;29.70;69.70;;;;;;4975563;28;20215;-78
2022/08/18 09:25:11;;;;;;;13.07;5.45;;;29.70;69.30;;;;;;4972276;28;20195;-78
2022/08/18 09:27:43;;;;;;;9.18;5.32;;;29.70;69.50;;;;;;4977871;28;20208;-78
2022/08/18 09:33:53;;;;;;;9.60;5.72;;;29.60;70.00;;;;;;5091218;27;21023;-79
2022/08/18 09:36:34;;;;;;;10.20;5.05;;;29.60;69.60;;;;;;5085895;28;20847;-79
2022/08/18 09:42:32;;;;;;;10.25;5.50;;;29.50;69.30;;;;;;5084366;28;20197;-78
2022/08/18 09:45:42;;;;;;;13.18;5.43;;;29.50;69.60;;;;;;5085367;28;20193;-78
2022/08/18 09:48:30;;;;;;;9.38;5.07;;;29.50;69.90;;;;;;5092679;28;20273;-78
2022/08/18 09:51:23;;;;;;;10.60;5.20;;;29.50;69.80;;;;;;5084843;28;20217;-80
2022/08/18 09:54:16;;;;;;;8.75;4.65;;;29.50;69.90;;;;;;5090233;28;20708;-79
2022/08/18 09:57:24;;;;;;;11.15;5.38;;;29.50;69.70;;;;;;5086727;28;20204;-80
2022/08/18 10:00:30;;;;;;;10.15;5.13;;;29.60;69.40;;;;;;5088478;28;20784;-80
2022/08/18 10:03:14;;;;;;;8.57;5.32;;;29.60;69.30;;;;;;5088077;28;20246;-79
2022/08/18 10:06:07;;;;;;;9.48;5.43;;;29.70;69.50;;;;;;5087954;28;20712;-80
2022/08/18 10:09:30;;;;;;;14.13;5.70;;;29.70;69.50;;;;;;5085929;28;20787;-81
2022/08/18 10:12:28;;;;;;;8.07;4.72;;;29.80;69.40;;;;;;5089172;28;20275;-83
2022/08/18 10:15:24;;;;;;;11.00;4.55;;;29.90;69.30;;;;;;5093699;28;20185;-80
2022/08/18 10:18:41;;;;;;;10.38;4.65;;;29.90;69.30;;;;;;5090786;28;20197;-80
2022/08/18 10:21:16;;;;;;;8.48;4.25;;;29.90;68.90;;;;;;5097667;28;20604;-81
2022/08/18 10:23:54;;;;;;;17.23;5.13;;;29.90;68.80;;;;;;5094482;28;20250;-80
2022/08/18 10:27:22;;;;;;;7.03;4.20;;;29.90;68.80;;;;;;5096739;28;20189;-80
2022/08/18 10:29:57;;;;;;;10.38;4.88;;;29.90;68.40;;;;;;5092999;28;20186;-80
2022/08/18 10:32:45;;;;;;;7.68;4.28;;;30.00;68.50;;;;;;5099124;28;20320;-80
2022/08/18 10:36:06;;;;;;;7.03;4.72;;;30.00;68.40;;;;;;5087515;28;20719;-81
2022/08/18 10:38:42;;;;;;;7.85;4.78;;;30.00;68.40;;;;;;5096227;28;20282;-80
2022/08/18 10:41:23;;;;;;;9.75;5.32;;;30.10;68.80;;;;;;5093564;28;20197;-81
2022/08/18 10:43:54;;;;;;;8.45;5.03;;;30.10;68.80;;;;;;5083602;28;20187;-80
2022/08/18 10:46:27;;;;;;;11.48;4.80;;;30.10;69.00;;;;;;5083429;28;20189;-81
2022/08/18 10:49:05;;;;;;;8.48;4.63;;;30.10;68.80;;;;;;5074726;28;20185;-80
2022/08/18 10:52:14;;;;;;;6.88;4.68;;;30.20;68.70;;;;;;5076675;28;20919;-80
2022/08/18 10:55:12;;;;;;;7.82;4.60;;;30.30;68.50;;;;;;5072163;28;20251;-81
2022/08/18 10:58:21;;;;;;;7.07;5.20;;;30.40;68.40;;;;;;5076913;28;20213;-79
2022/08/18 11:01:11;;;;;;;7.38;5.07;;;30.40;68.50;;;;;;5081407;28;20190;-80
2022/08/18 11:03:58;;;;;;;7.95;4.55;;;30.50;68.50;;;;;;5080973;28;20185;-82
2022/08/18 11:06:49;;;;;;;7.80;5.07;;;30.60;68.30;;;;;;5081938;28;20215;-81
2022/08/18 11:09:25;;;;;;;12.02;5.40;;;30.70;68.30;;;;;;5064394;28;20193;-82
2022/08/18 11:11:57;;;;;;;14.30;4.85;;;30.70;68.30;;;;;;5060670;28;20281;-81
2022/08/18 11:15:06;;;;;;;9.32;4.70;;;30.80;68.10;;;;;;5058729;28;20186;-81
2022/08/18 11:18:07;;;;;;;10.43;4.85;;;30.90;67.80;;;;;;5060289;28;20202;-79
2022/08/18 11:20:39;;;;;;;12.13;4.97;;;31.00;67.50;;;;;;5061522;28;20197;-80
2022/08/18 11:23:15;;;;;;;8.52;5.00;;;31.10;67.40;;;;;;5066254;28;20186;-79
2022/08/18 11:25:44;;;;;;;7.80;4.78;;;31.10;67.20;;;;;;5059347;28;20194;-80
2022/08/18 11:28:17;;;;;;;11.02;4.93;;;31.20;66.90;;;;;;5056387;28;20191;-79
2022/08/18 11:30:49;;;;;;;8.85;5.40;;;31.30;66.90;;;;;;5056880;28;20659;-80
2022/08/18 11:33:21;;;;;;;7.82;4.75;;;31.30;66.70;;;;;;5057786;28;21514;-80
2022/08/18 11:36:09;;;;;;;10.20;4.88;;;31.40;66.40;;;;;;5065174;28;20189;-79
2022/08/18 11:38:55;;;;;;;10.15;5.22;;;31.40;65.80;;;;;;5062043;28;20221;-79
2022/08/18 11:41:28;;;;;;;10.63;5.35;;;31.50;65.70;;;;;;5061272;28;20198;-78
2022/08/18 11:44:23;;;;;;;7.75;5.13;;;31.60;65.50;;;;;;5057717;28;20199;-79
2022/08/18 11:46:56;;;;;;;8.63;4.95;;;31.70;65.30;;;;;;5057775;28;20191;-78
2022/08/18 11:49:35;;;;;;;8.20;5.05;;;31.70;65.00;;;;;;5069480;28;20228;-78
2022/08/18 11:52:20;;;;;;;8.30;4.95;;;31.80;64.60;;;;;;5054694;28;20194;-80
2022/08/18 11:55:03;;;;;;;7.20;4.88;;;31.90;64.80;;;;;;5052556;28;20538;-79
2022/08/18 11:57:54;;;;;;;8.35;5.32;;;32.00;64.60;;;;;;5056846;28;20552;-77
2022/08/18 12:00:46;;;;;;;9.52;4.60;;;32.10;64.50;;;;;;5061837;28;20271;-79
2022/08/18 12:03:23;;;;;;;8.20;5.18;;;32.20;64.20;;;;;;5053195;28;20671;-78
2022/08/18 12:05:57;;;;;;;7.50;4.55;;;32.30;63.10;;;;;;5057219;28;20233;-79
2022/08/18 12:08:34;;;;;;;7.53;4.78;;;32.30;63.10;;;;;;5054502;28;20855;-79
2022/08/18 12:11:31;;;;;;;7.45;5.00;;;32.30;62.70;;;;;;5060273;28;20209;-80
2022/08/18 12:14:09;;;;;;;12.13;5.38;;;32.30;63.00;;;;;;5042751;28;20908;-79
2022/08/18 12:16:58;;;;;;;7.97;4.65;;;32.30;63.00;;;;;;5060353;28;20833;-79
2022/08/18 12:19:36;;;;;;;15.23;5.65;;;32.30;62.80;;;;;;5061206;28;20215;-78
2022/08/18 12:22:17;;;;;;;7.65;5.07;;;32.30;62.70;;;;;;5057597;28;20289;-78
2022/08/18 12:24:49;;;;;;;9.35;5.32;;;32.40;61.90;;;;;;5055318;28;20205;-79
2022/08/18 12:27:27;;;;;;;7.25;4.88;;;32.50;61.80;;;;;;5063547;28;20295;-79
2022/08/18 12:30:00;;;;;;;8.10;5.20;;;32.60;61.80;;;;;;5057651;28;20206;-79
2022/08/18 12:32:35;;;;;;;9.48;5.50;;;32.70;61.50;;;;;;5056686;28;21063;-80
2022/08/18 12:35:25;;;;;;;8.95;5.00;;;32.80;61.70;;;;;;5056911;28;20187;-79
2022/08/18 12:37:57;;;;;;;9.80;6.00;;;32.90;61.70;;;;;;5059684;28;20561;-80
2022/08/18 12:40:46;;;;;;;7.80;4.85;;;32.90;61.40;;;;;;5056809;28;20870;-80
2022/08/18 12:43:15;;;;;;;7.75;4.75;;;32.90;60.60;;;;;;5056961;28;20205;-79
2022/08/18 12:45:45;;;;;;;10.93;4.65;;;32.90;60.40;;;;;;5059644;28;20925;-80
2022/08/18 12:48:20;;;;;;;13.68;5.95;;;32.90;60.50;;;;;;5054227;28;20195;-80
2022/08/18 12:50:56;;;;;;;11.00;5.25;;;32.90;60.70;;;;;;5060166;28;20194;-79
2022/08/18 12:53:46;;;;;;;8.90;5.43;;;32.90;60.70;;;;;;5055159;28;20227;-79
2022/08/18 12:56:29;;;;;;;9.13;5.25;;;32.80;60.60;;;;;;5058949;28;20197;-78
2022/08/18 12:59:00;;;;;;;8.40;5.00;;;32.80;60.60;;;;;;5050504;28;20708;-78
2022/08/18 13:01:32;;;;;;;8.05;5.65;;;32.70;60.30;;;;;;5063771;28;20547;-79
2022/08/18 13:04:02;;;;;;;9.55;5.63;;;32.70;60.10;;;;;;5055073;28;20195;-78
2022/08/18 13:06:45;;;;;;;6.63;5.07;;;32.60;60.20;;;;;;5052705;28;20202;-79
2022/08/18 13:09:31;;;;;;;10.55;5.03;;;32.60;60.30;;;;;;5058313;28;20214;-79
2022/08/18 13:12:16;;;;;;;12.02;5.07;;;32.60;60.30;;;;;;5059020;28;20221;-78
2022/08/18 13:14:44;;;;;;;6.32;4.82;;;32.50;60.40;;;;;;5061978;28;20240;-79
2022/08/18 13:17:14;;;;;;;9.20;5.15;;;32.60;60.60;;;;;;5053365;28;20217;-80
2022/08/18 13:20:05;;;;;;;12.80;5.22;;;32.60;60.50;;;;;;5056157;28;20281;-78
2022/08/18 13:22:35;;;;;;;10.23;5.07;;;32.70;60.60;;;;;;5060967;28;20675;-79
2022/08/18 13:25:06;;;;;;;7.97;5.03;;;32.80;60.80;;;;;;5062492;28;20190;-83
2022/08/18 13:27:35;;;;;;;17.05;4.60;;;32.90;61.30;;;;;;5057013;28;20864;-79
2022/08/18 13:30:08;;;;;;;8.02;5.38;;;33.00;61.60;;;;;;5057080;28;20206;-79
2022/08/18 13:32:57;;;;;;;7.13;4.95;;;33.10;61.30;;;;;;5057524;28;20249;-78
2022/08/18 13:35:33;;;;;;;8.68;5.40;;;33.20;61.10;;;;;;5057032;28;20190;-79
2022/08/18 13:38:06;;;;;;;8.60;5.82;;;33.30;60.90;;;;;;5063087;28;20197;-79
2022/08/18 13:40:47;;;;;;;12.90;5.50;;;33.40;60.70;;;;;;5053504;28;20854;-79
2022/08/18 13:43:17;;;;;;;10.05;5.38;;;33.40;60.30;;;;;;5059745;28;20188;-79
2022/08/18 13:45:48;;;;;;;9.45;5.75;;;33.50;60.20;;;;;;5058754;28;20716;-78
2022/08/18 13:48:24;;;;;;;7.55;4.93;;;33.50;59.80;;;;;;5065200;28;20206;-80
2022/08/18 13:50:54;;;;;;;9.95;5.40;;;33.50;59.60;;;;;;5052793;28;20623;-78
2022/08/18 13:53:25;;;;;;;8.35;5.07;;;33.50;59.30;;;;;;5058834;28;20214;-78
2022/08/18 13:55:58;;;;;;;12.30;6.28;;;33.50;59.40;;;;;;5061112;28;20187;-78